sensor_id;sensor_type;location;lat;lon;timestamp;P1;durP1;ratioP1;P2;durP2;ratioP2
22665;SDS011;11499;49.486;11.104;2022-07-29T00:00:34;5.38;;;1.90;;
22665;SDS011;11499;49.486;11.104;2022-07-29T00:03:00;3.88;;;1.85;;
22665;SDS011;11499;49.486;11.104;2022-07-29T00:05:26;3.42;;;1.65;;
22665;SDS011;11499;49.486;11.104;2022-07-29T00:07:52;4.63;;;1.80;;
22665;SDS011;11499;49.486;11.104;2022-07-29T00:10:17;6.65;;;1.95;;
22665;SDS011;11499;49.486;11.104;2022-07-29T00:15:18;3.95;;;1.95;;
22665;SDS011;11499;49.486;11.104;2022-07-29T00:17:44;5.65;;;2.47;;
22665;SDS011;11499;49.486;11.104;2022-07-29T00:20:09;5.97;;;1.92;;
22665;SDS011;11499;49.486;11.104;2022-07-29T00:22:38;2.63;;;1.80;;
22665;SDS011;11499;49.486;11.104;2022-07-29T00:25:04;5.07;;;1.90;;
22665;SDS011;11499;49.486;11.104;2022-07-29T00:27:30;2.03;;;1.73;;
22665;SDS011;11499;49.486;11.104;2022-07-29T00:29:56;2.78;;;1.70;;
22665;SDS011;11499;49.486;11.104;2022-07-29T00:32:21;5.22;;;1.90;;
22665;SDS011;11499;49.486;11.104;2022-07-29T00:34:47;4.07;;;1.88;;
22665;SDS011;11499;49.486;11.104;2022-07-29T00:37:31;4.68;;;2.00;;
22665;SDS011;11499;49.486;11.104;2022-07-29T00:42:30;6.47;;;2.47;;
22665;SDS011;11499;49.486;11.104;2022-07-29T00:45:05;4.22;;;1.67;;
22665;SDS011;11499;49.486;11.104;2022-07-29T00:47:31;4.70;;;1.77;;
22665;SDS011;11499;49.486;11.104;2022-07-29T00:49:56;5.03;;;2.00;;
22665;SDS011;11499;49.486;11.104;2022-07-29T00:52:22;4.25;;;1.98;;
22665;SDS011;11499;49.486;11.104;2022-07-29T00:54:48;3.92;;;1.88;;
22665;SDS011;11499;49.486;11.104;2022-07-29T00:57:13;4.10;;;1.90;;
22665;SDS011;11499;49.486;11.104;2022-07-29T00:59:39;3.22;;;1.95;;
22665;SDS011;11499;49.486;11.104;2022-07-29T01:02:05;3.55;;;1.80;;
22665;SDS011;11499;49.486;11.104;2022-07-29T01:04:30;3.95;;;1.70;;
22665;SDS011;11499;49.486;11.104;2022-07-29T01:09:43;2.33;;;1.75;;
22665;SDS011;11499;49.486;11.104;2022-07-29T01:12:10;2.90;;;2.03;;
22665;SDS011;11499;49.486;11.104;2022-07-29T01:14:38;7.78;;;1.90;;
22665;SDS011;11499;49.486;11.104;2022-07-29T01:17:21;8.80;;;2.00;;
22665;SDS011;11499;49.486;11.104;2022-07-29T01:19:59;7.20;;;2.15;;
22665;SDS011;11499;49.486;11.104;2022-07-29T01:25:10;4.65;;;1.60;;
22665;SDS011;11499;49.486;11.104;2022-07-29T01:30:24;3.05;;;1.70;;
22665;SDS011;11499;49.486;11.104;2022-07-29T01:32:54;3.67;;;2.30;;
22665;SDS011;11499;49.486;11.104;2022-07-29T01:40:38;5.03;;;2.05;;
22665;SDS011;11499;49.486;11.104;2022-07-29T01:43:12;3.47;;;1.92;;
22665;SDS011;11499;49.486;11.104;2022-07-29T01:45:46;3.97;;;1.88;;
22665;SDS011;11499;49.486;11.104;2022-07-29T01:48:18;3.17;;;1.70;;
22665;SDS011;11499;49.486;11.104;2022-07-29T01:50:51;3.22;;;2.05;;
22665;SDS011;11499;49.486;11.104;2022-07-29T01:53:28;4.78;;;1.80;;
22665;SDS011;11499;49.486;11.104;2022-07-29T01:56:14;2.53;;;1.83;;
22665;SDS011;11499;49.486;11.104;2022-07-29T01:58:43;3.97;;;1.80;;
22665;SDS011;11499;49.486;11.104;2022-07-29T02:01:10;4.63;;;1.92;;
22665;SDS011;11499;49.486;11.104;2022-07-29T02:06:10;4.65;;;2.00;;
22665;SDS011;11499;49.486;11.104;2022-07-29T02:08:37;3.92;;;1.60;;
22665;SDS011;11499;49.486;11.104;2022-07-29T02:11:04;4.30;;;1.90;;
22665;SDS011;11499;49.486;11.104;2022-07-29T02:13:31;3.95;;;1.95;;
22665;SDS011;11499;49.486;11.104;2022-07-29T02:16:00;6.72;;;2.25;;
22665;SDS011;11499;49.486;11.104;2022-07-29T02:18:30;3.50;;;1.80;;
22665;SDS011;11499;49.486;11.104;2022-07-29T02:20:56;3.67;;;1.80;;
22665;SDS011;11499;49.486;11.104;2022-07-29T02:23:24;2.78;;;1.90;;
22665;SDS011;11499;49.486;11.104;2022-07-29T02:25:52;6.22;;;2.05;;
22665;SDS011;11499;49.486;11.104;2022-07-29T02:28:20;5.18;;;1.80;;
22665;SDS011;11499;49.486;11.104;2022-07-29T02:33:38;2.70;;;1.73;;
22665;SDS011;11499;49.486;11.104;2022-07-29T02:36:06;4.03;;;2.15;;
22665;SDS011;11499;49.486;11.104;2022-07-29T02:38:32;2.83;;;1.60;;
22665;SDS011;11499;49.486;11.104;2022-07-29T02:43:55;2.55;;;1.65;;
22665;SDS011;11499;49.486;11.104;2022-07-29T02:46:30;3.67;;;1.90;;
22665;SDS011;11499;49.486;11.104;2022-07-29T02:49:42;2.47;;;1.83;;
22665;SDS011;11499;49.486;11.104;2022-07-29T02:52:01;3.85;;;1.80;;
22665;SDS011;11499;49.486;11.104;2022-07-29T02:54:46;4.28;;;2.00;;
22665;SDS011;11499;49.486;11.104;2022-07-29T02:57:19;5.40;;;1.73;;
22665;SDS011;11499;49.486;11.104;2022-07-29T03:01:46;2.60;;;2.00;;
22665;SDS011;11499;49.486;11.104;2022-07-29T03:04:12;8.00;;;2.20;;
22665;SDS011;11499;49.486;11.104;2022-07-29T03:06:41;7.97;;;2.27;;
22665;SDS011;11499;49.486;11.104;2022-07-29T03:09:08;3.40;;;2.00;;
22665;SDS011;11499;49.486;11.104;2022-07-29T03:11:35;4.03;;;1.90;;
22665;SDS011;11499;49.486;11.104;2022-07-29T03:14:02;4.10;;;1.80;;
22665;SDS011;11499;49.486;11.104;2022-07-29T03:16:28;4.57;;;2.17;;
22665;SDS011;11499;49.486;11.104;2022-07-29T03:18:54;4.67;;;2.00;;
22665;SDS011;11499;49.486;11.104;2022-07-29T03:21:20;2.77;;;1.67;;
22665;SDS011;11499;49.486;11.104;2022-07-29T03:23:46;3.95;;;2.08;;
22665;SDS011;11499;49.486;11.104;2022-07-29T03:28:47;2.78;;;1.77;;
22665;SDS011;11499;49.486;11.104;2022-07-29T03:31:13;3.47;;;2.15;;
22665;SDS011;11499;49.486;11.104;2022-07-29T03:33:38;2.95;;;1.90;;
22665;SDS011;11499;49.486;11.104;2022-07-29T03:36:04;5.60;;;1.97;;
22665;SDS011;11499;49.486;11.104;2022-07-29T03:38:30;3.42;;;1.98;;
22665;SDS011;11499;49.486;11.104;2022-07-29T03:41:00;2.17;;;1.80;;
22665;SDS011;11499;49.486;11.104;2022-07-29T03:43:30;4.17;;;1.90;;
22665;SDS011;11499;49.486;11.104;2022-07-29T03:45:58;3.27;;;1.93;;
22665;SDS011;11499;49.486;11.104;2022-07-29T03:48:25;5.65;;;1.90;;
22665;SDS011;11499;49.486;11.104;2022-07-29T03:50:54;4.97;;;1.80;;
22665;SDS011;11499;49.486;11.104;2022-07-29T03:56:01;4.37;;;1.90;;
22665;SDS011;11499;49.486;11.104;2022-07-29T03:58:28;3.13;;;1.70;;
22665;SDS011;11499;49.486;11.104;2022-07-29T04:00:56;4.50;;;2.17;;
22665;SDS011;11499;49.486;11.104;2022-07-29T04:03:22;4.45;;;1.85;;
22665;SDS011;11499;49.486;11.104;2022-07-29T04:06:21;3.67;;;1.75;;
22665;SDS011;11499;49.486;11.104;2022-07-29T04:08:39;3.80;;;1.95;;
22665;SDS011;11499;49.486;11.104;2022-07-29T04:11:05;7.13;;;2.00;;
22665;SDS011;11499;49.486;11.104;2022-07-29T04:13:31;2.88;;;1.63;;
22665;SDS011;11499;49.486;11.104;2022-07-29T04:15:57;3.30;;;1.70;;
22665;SDS011;11499;49.486;11.104;2022-07-29T04:18:22;3.88;;;2.05;;
22665;SDS011;11499;49.486;11.104;2022-07-29T04:23:19;5.63;;;1.80;;
22665;SDS011;11499;49.486;11.104;2022-07-29T04:25:44;2.45;;;1.73;;
22665;SDS011;11499;49.486;11.104;2022-07-29T04:28:10;2.58;;;1.90;;
22665;SDS011;11499;49.486;11.104;2022-07-29T04:30:36;3.15;;;1.70;;
22665;SDS011;11499;49.486;11.104;2022-07-29T04:33:03;3.23;;;2.03;;
22665;SDS011;11499;49.486;11.104;2022-07-29T04:35:31;4.47;;;2.03;;
22665;SDS011;11499;49.486;11.104;2022-07-29T04:37:59;3.72;;;2.10;;
22665;SDS011;11499;49.486;11.104;2022-07-29T04:40:25;4.10;;;2.10;;
22665;SDS011;11499;49.486;11.104;2022-07-29T04:42:50;4.10;;;1.95;;
22665;SDS011;11499;49.486;11.104;2022-07-29T04:45:16;1.67;;;1.52;;
22665;SDS011;11499;49.486;11.104;2022-07-29T04:50:51;4.10;;;1.90;;
22665;SDS011;11499;49.486;11.104;2022-07-29T04:53:17;2.50;;;1.90;;
22665;SDS011;11499;49.486;11.104;2022-07-29T04:55:43;3.47;;;1.90;;
22665;SDS011;11499;49.486;11.104;2022-07-29T04:58:08;4.55;;;1.88;;
22665;SDS011;11499;49.486;11.104;2022-07-29T05:00:34;4.40;;;1.98;;
22665;SDS011;11499;49.486;11.104;2022-07-29T05:02:59;3.35;;;1.88;;
22665;SDS011;11499;49.486;11.104;2022-07-29T05:05:25;3.65;;;2.22;;
22665;SDS011;11499;49.486;11.104;2022-07-29T05:07:50;2.70;;;1.90;;
22665;SDS011;11499;49.486;11.104;2022-07-29T05:10:16;4.80;;;2.10;;
22665;SDS011;11499;49.486;11.104;2022-07-29T05:12:41;5.00;;;1.85;;
22665;SDS011;11499;49.486;11.104;2022-07-29T05:17:43;3.42;;;2.00;;
22665;SDS011;11499;49.486;11.104;2022-07-29T05:20:09;3.15;;;1.75;;
22665;SDS011;11499;49.486;11.104;2022-07-29T05:22:35;6.15;;;1.83;;
22665;SDS011;11499;49.486;11.104;2022-07-29T05:25:00;4.90;;;2.13;;
22665;SDS011;11499;49.486;11.104;2022-07-29T05:27:27;6.18;;;2.05;;
22665;SDS011;11499;49.486;11.104;2022-07-29T05:29:52;4.78;;;2.10;;
22665;SDS011;11499;49.486;11.104;2022-07-29T05:32:18;4.47;;;2.03;;
22665;SDS011;11499;49.486;11.104;2022-07-29T05:34:43;4.70;;;2.13;;
22665;SDS011;11499;49.486;11.104;2022-07-29T05:37:09;5.18;;;2.20;;
22665;SDS011;11499;49.486;11.104;2022-07-29T05:39:34;3.78;;;1.88;;
22665;SDS011;11499;49.486;11.104;2022-07-29T05:44:38;3.53;;;1.70;;
22665;SDS011;11499;49.486;11.104;2022-07-29T05:47:04;2.53;;;1.92;;
22665;SDS011;11499;49.486;11.104;2022-07-29T05:49:31;3.17;;;2.00;;
22665;SDS011;11499;49.486;11.104;2022-07-29T05:51:57;5.20;;;1.92;;
22665;SDS011;11499;49.486;11.104;2022-07-29T05:54:23;3.08;;;1.90;;
22665;SDS011;11499;49.486;11.104;2022-07-29T05:56:48;4.60;;;2.30;;
22665;SDS011;11499;49.486;11.104;2022-07-29T05:59:14;4.10;;;2.35;;
22665;SDS011;11499;49.486;11.104;2022-07-29T06:01:39;3.72;;;2.00;;
22665;SDS011;11499;49.486;11.104;2022-07-29T06:04:06;5.10;;;1.90;;
22665;SDS011;11499;49.486;11.104;2022-07-29T06:06:32;4.60;;;2.13;;
22665;SDS011;11499;49.486;11.104;2022-07-29T06:11:47;4.13;;;1.98;;
22665;SDS011;11499;49.486;11.104;2022-07-29T06:14:13;3.22;;;2.20;;
22665;SDS011;11499;49.486;11.104;2022-07-29T06:16:39;4.78;;;2.20;;
22665;SDS011;11499;49.486;11.104;2022-07-29T06:19:05;4.53;;;2.60;;
22665;SDS011;11499;49.486;11.104;2022-07-29T06:21:30;5.05;;;2.45;;
22665;SDS011;11499;49.486;11.104;2022-07-29T06:23:56;5.22;;;2.33;;
22665;SDS011;11499;49.486;11.104;2022-07-29T06:26:21;4.70;;;2.33;;
22665;SDS011;11499;49.486;11.104;2022-07-29T06:28:47;6.85;;;2.60;;
22665;SDS011;11499;49.486;11.104;2022-07-29T06:31:13;4.82;;;2.08;;
22665;SDS011;11499;49.486;11.104;2022-07-29T06:33:39;3.90;;;2.45;;
22665;SDS011;11499;49.486;11.104;2022-07-29T06:38:45;3.25;;;1.95;;
22665;SDS011;11499;49.486;11.104;2022-07-29T06:41:10;5.85;;;2.30;;
22665;SDS011;11499;49.486;11.104;2022-07-29T06:43:40;2.60;;;1.90;;
22665;SDS011;11499;49.486;11.104;2022-07-29T06:46:08;6.38;;;2.08;;
22665;SDS011;11499;49.486;11.104;2022-07-29T06:48:37;4.15;;;2.10;;
22665;SDS011;11499;49.486;11.104;2022-07-29T06:51:04;3.15;;;2.20;;
22665;SDS011;11499;49.486;11.104;2022-07-29T06:53:30;2.47;;;2.20;;
22665;SDS011;11499;49.486;11.104;2022-07-29T06:55:57;4.18;;;2.40;;
22665;SDS011;11499;49.486;11.104;2022-07-29T06:58:24;7.88;;;2.88;;
22665;SDS011;11499;49.486;11.104;2022-07-29T07:00:50;5.43;;;2.20;;
22665;SDS011;11499;49.486;11.104;2022-07-29T07:06:01;3.67;;;2.38;;
22665;SDS011;11499;49.486;11.104;2022-07-29T07:08:27;4.57;;;2.60;;
22665;SDS011;11499;49.486;11.104;2022-07-29T07:10:52;4.38;;;2.38;;
22665;SDS011;11499;49.486;11.104;2022-07-29T07:13:19;5.22;;;2.35;;
22665;SDS011;11499;49.486;11.104;2022-07-29T07:15:44;4.25;;;2.38;;
22665;SDS011;11499;49.486;11.104;2022-07-29T07:18:12;4.63;;;2.55;;
22665;SDS011;11499;49.486;11.104;2022-07-29T07:20:38;4.68;;;2.60;;
22665;SDS011;11499;49.486;11.104;2022-07-29T07:23:04;6.20;;;2.58;;
22665;SDS011;11499;49.486;11.104;2022-07-29T07:25:30;8.10;;;2.80;;
22665;SDS011;11499;49.486;11.104;2022-07-29T07:27:55;5.32;;;2.50;;
22665;SDS011;11499;49.486;11.104;2022-07-29T07:32:04;4.72;;;2.20;;
22665;SDS011;11499;49.486;11.104;2022-07-29T07:34:29;6.82;;;2.55;;
22665;SDS011;11499;49.486;11.104;2022-07-29T07:36:55;5.65;;;2.55;;
22665;SDS011;11499;49.486;11.104;2022-07-29T07:39:21;5.43;;;2.50;;
22665;SDS011;11499;49.486;11.104;2022-07-29T07:41:46;4.75;;;2.20;;
22665;SDS011;11499;49.486;11.104;2022-07-29T07:44:11;4.68;;;2.50;;
22665;SDS011;11499;49.486;11.104;2022-07-29T07:46:37;9.88;;;2.80;;
22665;SDS011;11499;49.486;11.104;2022-07-29T07:49:02;4.45;;;2.55;;
22665;SDS011;11499;49.486;11.104;2022-07-29T07:51:28;5.00;;;2.65;;
22665;SDS011;11499;49.486;11.104;2022-07-29T07:53:53;5.05;;;2.40;;
22665;SDS011;11499;49.486;11.104;2022-07-29T07:58:37;4.60;;;2.38;;
22665;SDS011;11499;49.486;11.104;2022-07-29T08:01:03;5.43;;;2.60;;
22665;SDS011;11499;49.486;11.104;2022-07-29T08:03:29;4.40;;;2.40;;
22665;SDS011;11499;49.486;11.104;2022-07-29T08:05:54;7.50;;;2.85;;
22665;SDS011;11499;49.486;11.104;2022-07-29T08:08:20;4.65;;;2.50;;
22665;SDS011;11499;49.486;11.104;2022-07-29T08:10:46;3.90;;;2.30;;
22665;SDS011;11499;49.486;11.104;2022-07-29T08:13:18;5.22;;;2.65;;
22665;SDS011;11499;49.486;11.104;2022-07-29T08:15:45;2.78;;;2.47;;
22665;SDS011;11499;49.486;11.104;2022-07-29T08:18:11;8.52;;;2.25;;
22665;SDS011;11499;49.486;11.104;2022-07-29T08:20:37;10.60;;;3.35;;
22665;SDS011;11499;49.486;11.104;2022-07-29T08:25:18;3.33;;;2.40;;
22665;SDS011;11499;49.486;11.104;2022-07-29T08:27:45;29.25;;;5.38;;
22665;SDS011;11499;49.486;11.104;2022-07-29T08:30:15;10.73;;;3.38;;
22665;SDS011;11499;49.486;11.104;2022-07-29T08:32:40;39.13;;;7.25;;
22665;SDS011;11499;49.486;11.104;2022-07-29T08:35:07;7.13;;;2.85;;
22665;SDS011;11499;49.486;11.104;2022-07-29T08:37:33;6.05;;;2.60;;
22665;SDS011;11499;49.486;11.104;2022-07-29T08:39:59;13.20;;;4.03;;
22665;SDS011;11499;49.486;11.104;2022-07-29T08:42:25;8.68;;;3.30;;
22665;SDS011;11499;49.486;11.104;2022-07-29T08:44:50;9.68;;;2.90;;
22665;SDS011;11499;49.486;11.104;2022-07-29T08:47:16;3.63;;;2.25;;
22665;SDS011;11499;49.486;11.104;2022-07-29T08:51:56;2.92;;;2.58;;
22665;SDS011;11499;49.486;11.104;2022-07-29T08:54:23;4.18;;;2.60;;
22665;SDS011;11499;49.486;11.104;2022-07-29T08:56:50;4.85;;;2.50;;
22665;SDS011;11499;49.486;11.104;2022-07-29T08:59:16;8.75;;;3.08;;
22665;SDS011;11499;49.486;11.104;2022-07-29T09:01:45;6.57;;;3.28;;
22665;SDS011;11499;49.486;11.104;2022-07-29T09:04:12;8.35;;;3.13;;
22665;SDS011;11499;49.486;11.104;2022-07-29T09:06:41;4.70;;;2.45;;
22665;SDS011;11499;49.486;11.104;2022-07-29T09:09:08;5.70;;;2.33;;
22665;SDS011;11499;49.486;11.104;2022-07-29T09:11:34;4.25;;;2.90;;
22665;SDS011;11499;49.486;11.104;2022-07-29T09:14:00;4.18;;;2.83;;
22665;SDS011;11499;49.486;11.104;2022-07-29T09:19:25;5.07;;;2.78;;
22665;SDS011;11499;49.486;11.104;2022-07-29T09:21:56;2.92;;;2.35;;
22665;SDS011;11499;49.486;11.104;2022-07-29T09:24:24;4.15;;;2.33;;
22665;SDS011;11499;49.486;11.104;2022-07-29T09:26:59;3.38;;;2.55;;
22665;SDS011;11499;49.486;11.104;2022-07-29T09:29:25;4.53;;;2.42;;
22665;SDS011;11499;49.486;11.104;2022-07-29T09:31:52;6.88;;;2.42;;
22665;SDS011;11499;49.486;11.104;2022-07-29T09:36:52;5.18;;;2.63;;
22665;SDS011;11499;49.486;11.104;2022-07-29T09:39:28;6.72;;;2.80;;
22665;SDS011;11499;49.486;11.104;2022-07-29T09:41:56;4.88;;;2.80;;
22665;SDS011;11499;49.486;11.104;2022-07-29T09:49:20;2.45;;;2.25;;
22665;SDS011;11499;49.486;11.104;2022-07-29T09:51:46;9.10;;;2.78;;
22665;SDS011;11499;49.486;11.104;2022-07-29T09:54:24;4.22;;;2.63;;
22665;SDS011;11499;49.486;11.104;2022-07-29T09:56:51;5.80;;;2.60;;
22665;SDS011;11499;49.486;11.104;2022-07-29T09:59:17;3.90;;;2.50;;
22665;SDS011;11499;49.486;11.104;2022-07-29T10:01:45;2.50;;;2.28;;
22665;SDS011;11499;49.486;11.104;2022-07-29T10:04:11;5.35;;;2.83;;
22665;SDS011;11499;49.486;11.104;2022-07-29T10:06:54;6.82;;;2.95;;
22665;SDS011;11499;49.486;11.104;2022-07-29T10:12:09;5.47;;;3.22;;
22665;SDS011;11499;49.486;11.104;2022-07-29T10:14:37;5.25;;;2.80;;
22665;SDS011;11499;49.486;11.104;2022-07-29T10:17:04;6.30;;;2.90;;
22665;SDS011;11499;49.486;11.104;2022-07-29T10:19:31;5.60;;;2.53;;
22665;SDS011;11499;49.486;11.104;2022-07-29T10:21:58;3.55;;;2.67;;
22665;SDS011;11499;49.486;11.104;2022-07-29T10:24:25;4.93;;;2.55;;
22665;SDS011;11499;49.486;11.104;2022-07-29T10:26:53;4.65;;;2.80;;
22665;SDS011;11499;49.486;11.104;2022-07-29T10:29:20;4.20;;;2.75;;
22665;SDS011;11499;49.486;11.104;2022-07-29T10:34:42;3.03;;;2.70;;
22665;SDS011;11499;49.486;11.104;2022-07-29T10:42:02;3.80;;;2.75;;
22665;SDS011;11499;49.486;11.104;2022-07-29T10:44:42;6.28;;;3.00;;
22665;SDS011;11499;49.486;11.104;2022-07-29T10:47:08;3.88;;;2.90;;
22665;SDS011;11499;49.486;11.104;2022-07-29T10:49:55;5.72;;;2.58;;
22665;SDS011;11499;49.486;11.104;2022-07-29T10:52:22;4.78;;;2.92;;
22665;SDS011;11499;49.486;11.104;2022-07-29T10:54:49;4.53;;;2.88;;
22665;SDS011;11499;49.486;11.104;2022-07-29T10:57:22;3.90;;;3.15;;
22665;SDS011;11499;49.486;11.104;2022-07-29T11:10:20;5.68;;;2.97;;
22665;SDS011;11499;49.486;11.104;2022-07-29T11:12:47;4.93;;;3.08;;
22665;SDS011;11499;49.486;11.104;2022-07-29T11:15:13;5.80;;;2.90;;
22665;SDS011;11499;49.486;11.104;2022-07-29T11:20:30;5.40;;;2.85;;
22665;SDS011;11499;49.486;11.104;2022-07-29T11:23:13;3.70;;;3.10;;
22665;SDS011;11499;49.486;11.104;2022-07-29T11:26:31;6.38;;;3.30;;
22665;SDS011;11499;49.486;11.104;2022-07-29T11:28:52;3.28;;;2.75;;
22665;SDS011;11499;49.486;11.104;2022-07-29T11:31:32;5.07;;;3.20;;
22665;SDS011;11499;49.486;11.104;2022-07-29T11:39:37;3.70;;;3.20;;
22665;SDS011;11499;49.486;11.104;2022-07-29T11:42:36;3.10;;;2.80;;
22665;SDS011;11499;49.486;11.104;2022-07-29T11:47:39;5.25;;;3.00;;
22665;SDS011;11499;49.486;11.104;2022-07-29T11:50:08;7.15;;;3.38;;
22665;SDS011;11499;49.486;11.104;2022-07-29T11:52:37;8.23;;;2.95;;
22665;SDS011;11499;49.486;11.104;2022-07-29T11:55:11;5.40;;;3.28;;
22665;SDS011;11499;49.486;11.104;2022-07-29T11:57:48;3.75;;;3.33;;
22665;SDS011;11499;49.486;11.104;2022-07-29T12:03:36;4.68;;;3.42;;
22665;SDS011;11499;49.486;11.104;2022-07-29T12:06:11;4.50;;;3.22;;
22665;SDS011;11499;49.486;11.104;2022-07-29T12:08:41;3.35;;;2.80;;
22665;SDS011;11499;49.486;11.104;2022-07-29T12:11:14;3.65;;;2.80;;
22665;SDS011;11499;49.486;11.104;2022-07-29T12:13:42;3.85;;;2.80;;
22665;SDS011;11499;49.486;11.104;2022-07-29T12:16:07;4.53;;;3.22;;
22665;SDS011;11499;49.486;11.104;2022-07-29T12:18:33;3.38;;;3.08;;
22665;SDS011;11499;49.486;11.104;2022-07-29T12:20:59;4.72;;;2.70;;
22665;SDS011;11499;49.486;11.104;2022-07-29T12:23:28;3.45;;;3.05;;
22665;SDS011;11499;49.486;11.104;2022-07-29T12:25:54;5.25;;;3.20;;
22665;SDS011;11499;49.486;11.104;2022-07-29T12:30:22;4.10;;;2.90;;
22665;SDS011;11499;49.486;11.104;2022-07-29T12:32:58;3.35;;;3.05;;
22665;SDS011;11499;49.486;11.104;2022-07-29T12:35:24;2.63;;;2.42;;
22665;SDS011;11499;49.486;11.104;2022-07-29T12:37:50;3.70;;;2.53;;
22665;SDS011;11499;49.486;11.104;2022-07-29T12:40:17;3.28;;;2.80;;
22665;SDS011;11499;49.486;11.104;2022-07-29T12:45:36;3.28;;;2.63;;
22665;SDS011;11499;49.486;11.104;2022-07-29T12:48:03;3.53;;;2.75;;
22665;SDS011;11499;49.486;11.104;2022-07-29T12:50:30;4.35;;;2.55;;
22665;SDS011;11499;49.486;11.104;2022-07-29T12:53:07;5.43;;;2.85;;
22665;SDS011;11499;49.486;11.104;2022-07-29T12:57:50;2.80;;;2.60;;
22665;SDS011;11499;49.486;11.104;2022-07-29T13:00:23;3.50;;;3.10;;
22665;SDS011;11499;49.486;11.104;2022-07-29T13:02:55;4.25;;;2.65;;
22665;SDS011;11499;49.486;11.104;2022-07-29T13:05:22;4.03;;;2.65;;
22665;SDS011;11499;49.486;11.104;2022-07-29T13:07:50;3.65;;;2.58;;
22665;SDS011;11499;49.486;11.104;2022-07-29T13:10:16;2.63;;;2.38;;
22665;SDS011;11499;49.486;11.104;2022-07-29T13:15:27;3.78;;;2.50;;
22665;SDS011;11499;49.486;11.104;2022-07-29T13:17:53;5.20;;;2.38;;
22665;SDS011;11499;49.486;11.104;2022-07-29T13:20:18;3.00;;;2.70;;
22665;SDS011;11499;49.486;11.104;2022-07-29T13:25:30;3.60;;;2.50;;
22665;SDS011;11499;49.486;11.104;2022-07-29T13:27:57;2.67;;;2.47;;
22665;SDS011;11499;49.486;11.104;2022-07-29T13:30:23;2.97;;;2.42;;
22665;SDS011;11499;49.486;11.104;2022-07-29T13:32:51;3.85;;;2.63;;
22665;SDS011;11499;49.486;11.104;2022-07-29T13:35:17;3.42;;;2.63;;
22665;SDS011;11499;49.486;11.104;2022-07-29T13:37:43;3.63;;;2.60;;
22665;SDS011;11499;49.486;11.104;2022-07-29T13:40:09;6.38;;;2.42;;
22665;SDS011;11499;49.486;11.104;2022-07-29T13:42:35;3.88;;;2.33;;
22665;SDS011;11499;49.486;11.104;2022-07-29T13:45:01;6.80;;;2.53;;
22665;SDS011;11499;49.486;11.104;2022-07-29T13:47:27;4.97;;;2.47;;
22665;SDS011;11499;49.486;11.104;2022-07-29T13:52:03;4.35;;;2.35;;
22665;SDS011;11499;49.486;11.104;2022-07-29T13:54:32;2.92;;;2.40;;
22665;SDS011;11499;49.486;11.104;2022-07-29T13:56:57;3.15;;;2.85;;
22665;SDS011;11499;49.486;11.104;2022-07-29T13:59:23;2.97;;;2.67;;
22665;SDS011;11499;49.486;11.104;2022-07-29T14:01:48;3.85;;;2.50;;
22665;SDS011;11499;49.486;11.104;2022-07-29T14:04:14;3.40;;;2.60;;
22665;SDS011;11499;49.486;11.104;2022-07-29T14:06:40;5.72;;;2.60;;
22665;SDS011;11499;49.486;11.104;2022-07-29T14:09:05;3.60;;;2.55;;
22665;SDS011;11499;49.486;11.104;2022-07-29T14:11:31;3.80;;;2.33;;
22665;SDS011;11499;49.486;11.104;2022-07-29T14:13:57;3.80;;;2.42;;
22665;SDS011;11499;49.486;11.104;2022-07-29T14:19:41;3.47;;;2.50;;
22665;SDS011;11499;49.486;11.104;2022-07-29T14:22:07;3.30;;;2.10;;
22665;SDS011;11499;49.486;11.104;2022-07-29T14:24:33;4.22;;;2.47;;
22665;SDS011;11499;49.486;11.104;2022-07-29T14:26:59;3.42;;;2.42;;
22665;SDS011;11499;49.486;11.104;2022-07-29T14:29:25;3.35;;;2.13;;
22665;SDS011;11499;49.486;11.104;2022-07-29T14:31:50;4.25;;;2.63;;
22665;SDS011;11499;49.486;11.104;2022-07-29T14:34:16;4.30;;;2.60;;
22665;SDS011;11499;49.486;11.104;2022-07-29T14:36:41;2.60;;;2.40;;
22665;SDS011;11499;49.486;11.104;2022-07-29T14:39:07;3.42;;;3.00;;
22665;SDS011;11499;49.486;11.104;2022-07-29T14:41:32;5.85;;;2.85;;
22665;SDS011;11499;49.486;11.104;2022-07-29T14:45:54;3.47;;;2.70;;
22665;SDS011;11499;49.486;11.104;2022-07-29T14:48:20;4.10;;;2.60;;
22665;SDS011;11499;49.486;11.104;2022-07-29T14:50:46;3.00;;;2.60;;
22665;SDS011;11499;49.486;11.104;2022-07-29T14:53:11;2.83;;;2.53;;
22665;SDS011;11499;49.486;11.104;2022-07-29T14:55:38;4.63;;;2.92;;
22665;SDS011;11499;49.486;11.104;2022-07-29T14:58:05;6.30;;;2.70;;
22665;SDS011;11499;49.486;11.104;2022-07-29T15:00:30;4.28;;;2.83;;
22665;SDS011;11499;49.486;11.104;2022-07-29T15:02:58;4.80;;;3.13;;
22665;SDS011;11499;49.486;11.104;2022-07-29T15:05:25;3.38;;;3.08;;
22665;SDS011;11499;49.486;11.104;2022-07-29T15:07:50;5.18;;;3.40;;
22665;SDS011;11499;49.486;11.104;2022-07-29T15:12:23;4.65;;;2.95;;
22665;SDS011;11499;49.486;11.104;2022-07-29T15:14:48;4.35;;;3.15;;
22665;SDS011;11499;49.486;11.104;2022-07-29T15:17:14;3.78;;;3.08;;
22665;SDS011;11499;49.486;11.104;2022-07-29T15:19:39;4.50;;;2.80;;
22665;SDS011;11499;49.486;11.104;2022-07-29T15:22:05;8.30;;;3.67;;
22665;SDS011;11499;49.486;11.104;2022-07-29T15:24:30;3.85;;;3.10;;
22665;SDS011;11499;49.486;11.104;2022-07-29T15:26:56;6.15;;;3.30;;
22665;SDS011;11499;49.486;11.104;2022-07-29T15:29:22;5.78;;;3.50;;
22665;SDS011;11499;49.486;11.104;2022-07-29T15:31:47;3.83;;;3.40;;
22665;SDS011;11499;49.486;11.104;2022-07-29T15:34:13;4.57;;;3.65;;
22665;SDS011;11499;49.486;11.104;2022-07-29T15:39:05;4.53;;;3.00;;
22665;SDS011;11499;49.486;11.104;2022-07-29T15:41:31;4.25;;;3.15;;
22665;SDS011;11499;49.486;11.104;2022-07-29T15:43:57;5.28;;;3.10;;
22665;SDS011;11499;49.486;11.104;2022-07-29T15:46:23;5.93;;;3.00;;
22665;SDS011;11499;49.486;11.104;2022-07-29T15:49:08;3.85;;;3.10;;
22665;SDS011;11499;49.486;11.104;2022-07-29T15:51:33;3.15;;;2.92;;
22665;SDS011;11499;49.486;11.104;2022-07-29T15:54:03;3.13;;;2.83;;
22665;SDS011;11499;49.486;11.104;2022-07-29T15:56:29;3.67;;;3.17;;
22665;SDS011;11499;49.486;11.104;2022-07-29T15:58:55;4.47;;;3.20;;
22665;SDS011;11499;49.486;11.104;2022-07-29T16:01:21;3.10;;;2.80;;
22665;SDS011;11499;49.486;11.104;2022-07-29T16:06:29;7.07;;;3.60;;
22665;SDS011;11499;49.486;11.104;2022-07-29T16:08:54;4.28;;;3.50;;
22665;SDS011;11499;49.486;11.104;2022-07-29T16:11:20;4.07;;;3.40;;
22665;SDS011;11499;49.486;11.104;2022-07-29T16:13:45;4.03;;;3.47;;
22665;SDS011;11499;49.486;11.104;2022-07-29T16:16:11;4.80;;;4.40;;
22665;SDS011;11499;49.486;11.104;2022-07-29T16:18:36;11.20;;;5.53;;
22665;SDS011;11499;49.486;11.104;2022-07-29T16:21:02;5.43;;;4.93;;
22665;SDS011;11499;49.486;11.104;2022-07-29T16:23:27;6.07;;;5.57;;
22665;SDS011;11499;49.486;11.104;2022-07-29T16:25:53;6.50;;;5.73;;
22665;SDS011;11499;49.486;11.104;2022-07-29T16:31:08;8.90;;;6.43;;
22665;SDS011;11499;49.486;11.104;2022-07-29T16:33:34;7.53;;;6.67;;
22665;SDS011;11499;49.486;11.104;2022-07-29T16:36:00;9.13;;;7.27;;
22665;SDS011;11499;49.486;11.104;2022-07-29T16:38:25;6.90;;;6.30;;
22665;SDS011;11499;49.486;11.104;2022-07-29T16:40:51;7.20;;;6.60;;
22665;SDS011;11499;49.486;11.104;2022-07-29T16:43:16;6.13;;;5.63;;
22665;SDS011;11499;49.486;11.104;2022-07-29T16:45:42;8.03;;;6.40;;
22665;SDS011;11499;49.486;11.104;2022-07-29T16:48:08;5.83;;;5.33;;
22665;SDS011;11499;49.486;11.104;2022-07-29T16:50:33;6.17;;;5.57;;
22665;SDS011;11499;49.486;11.104;2022-07-29T16:52:59;5.90;;;5.30;;